sensor_id;sensor_type;location;lat;lon;timestamp;temperature;humidity
14359;DHT22;7263;49.418;11.064;2023-06-22T00:02:18;18.40;99.90
14359;DHT22;7263;49.418;11.064;2023-06-22T00:04:50;18.40;99.90
14359;DHT22;7263;49.418;11.064;2023-06-22T00:07:23;18.40;99.90
14359;DHT22;7263;49.418;11.064;2023-06-22T00:09:49;18.40;99.90
14359;DHT22;7263;49.418;11.064;2023-06-22T00:12:19;18.40;99.90
14359;DHT22;7263;49.418;11.064;2023-06-22T00:14:47;18.40;99.90
14359;DHT22;7263;49.418;11.064;2023-06-22T00:17:14;18.40;99.90
14359;DHT22;7263;49.418;11.064;2023-06-22T00:19:40;18.40;99.90
14359;DHT22;7263;49.418;11.064;2023-06-22T00:22:08;18.30;99.90
14359;DHT22;7263;49.418;11.064;2023-06-22T00:24:35;18.30;99.90
14359;DHT22;7263;49.418;11.064;2023-06-22T00:27:01;18.30;99.90
14359;DHT22;7263;49.418;11.064;2023-06-22T00:29:30;18.20;99.90
14359;DHT22;7263;49.418;11.064;2023-06-22T00:31:58;18.20;99.90
14359;DHT22;7263;49.418;11.064;2023-06-22T00:34:33;18.20;99.90
14359;DHT22;7263;49.418;11.064;2023-06-22T00:36:59;18.10;99.90
14359;DHT22;7263;49.418;11.064;2023-06-22T00:39:27;18.10;99.90
14359;DHT22;7263;49.418;11.064;2023-06-22T00:41:56;18.00;99.90
14359;DHT22;7263;49.418;11.064;2023-06-22T00:44:23;18.00;99.90
14359;DHT22;7263;49.418;11.064;2023-06-22T00:46:50;18.00;99.90
14359;DHT22;7263;49.418;11.064;2023-06-22T00:49:18;18.00;99.90
14359;DHT22;7263;49.418;11.064;2023-06-22T00:51:45;18.00;99.90
14359;DHT22;7263;49.418;11.064;2023-06-22T00:54:13;17.90;99.90
14359;DHT22;7263;49.418;11.064;2023-06-22T00:56:45;17.90;99.90
14359;DHT22;7263;49.418;11.064;2023-06-22T00:59:14;17.90;99.90
14359;DHT22;7263;49.418;11.064;2023-06-22T01:01:42;17.90;99.90
14359;DHT22;7263;49.418;11.064;2023-06-22T01:04:09;17.90;99.90
14359;DHT22;7263;49.418;11.064;2023-06-22T01:06:44;17.90;99.90
14359;DHT22;7263;49.418;11.064;2023-06-22T01:09:15;17.80;99.90
14359;DHT22;7263;49.418;11.064;2023-06-22T01:11:50;17.80;99.90
14359;DHT22;7263;49.418;11.064;2023-06-22T01:14:23;17.80;99.90
14359;DHT22;7263;49.418;11.064;2023-06-22T01:16:51;17.70;99.90
14359;DHT22;7263;49.418;11.064;2023-06-22T01:19:29;17.70;99.90
14359;DHT22;7263;49.418;11.064;2023-06-22T01:22:07;17.70;99.90
14359;DHT22;7263;49.418;11.064;2023-06-22T01:24:51;17.70;99.90
14359;DHT22;7263;49.418;11.064;2023-06-22T01:27:32;17.70;99.90
14359;DHT22;7263;49.418;11.064;2023-06-22T01:30:05;17.70;99.90
14359;DHT22;7263;49.418;11.064;2023-06-22T01:32:38;17.60;99.90
14359;DHT22;7263;49.418;11.064;2023-06-22T01:35:07;17.60;99.90
14359;DHT22;7263;49.418;11.064;2023-06-22T01:37:36;17.60;99.90
14359;DHT22;7263;49.418;11.064;2023-06-22T01:40:07;17.60;99.90
14359;DHT22;7263;49.418;11.064;2023-06-22T01:42:35;17.60;99.90
14359;DHT22;7263;49.418;11.064;2023-06-22T01:45:05;17.50;99.90
14359;DHT22;7263;49.418;11.064;2023-06-22T01:47:33;17.60;99.90
14359;DHT22;7263;49.418;11.064;2023-06-22T01:50:01;17.50;99.90
14359;DHT22;7263;49.418;11.064;2023-06-22T01:57:33;17.50;99.90
14359;DHT22;7263;49.418;11.064;2023-06-22T02:00:07;17.50;99.90
14359;DHT22;7263;49.418;11.064;2023-06-22T02:02:42;17.60;99.90
14359;DHT22;7263;49.418;11.064;2023-06-22T02:05:10;17.70;99.90
14359;DHT22;7263;49.418;11.064;2023-06-22T02:07:42;17.80;99.90
14359;DHT22;7263;49.418;11.064;2023-06-22T02:10:20;17.80;99.90
14359;DHT22;7263;49.418;11.064;2023-06-22T02:12:48;17.80;99.90
14359;DHT22;7263;49.418;11.064;2023-06-22T02:15:18;17.80;99.90
14359;DHT22;7263;49.418;11.064;2023-06-22T02:20:13;17.60;99.90
14359;DHT22;7263;49.418;11.064;2023-06-22T02:22:40;17.60;99.90
14359;DHT22;7263;49.418;11.064;2023-06-22T02:25:10;17.60;99.90
14359;DHT22;7263;49.418;11.064;2023-06-22T02:27:37;17.50;99.90
14359;DHT22;7263;49.418;11.064;2023-06-22T02:30:07;17.60;99.90
14359;DHT22;7263;49.418;11.064;2023-06-22T02:32:42;17.50;99.90
14359;DHT22;7263;49.418;11.064;2023-06-22T02:35:09;17.60;99.90
14359;DHT22;7263;49.418;11.064;2023-06-22T02:37:37;17.50;99.90
14359;DHT22;7263;49.418;11.064;2023-06-22T02:40:07;17.50;99.90
14359;DHT22;7263;49.418;11.064;2023-06-22T02:42:36;17.50;99.90
14359;DHT22;7263;49.418;11.064;2023-06-22T02:45:08;17.50;99.90
14359;DHT22;7263;49.418;11.064;2023-06-22T02:47:38;17.60;99.90
14359;DHT22;7263;49.418;11.064;2023-06-22T02:50:13;17.70;99.90
14359;DHT22;7263;49.418;11.064;2023-06-22T02:55:10;17.80;99.90
14359;DHT22;7263;49.418;11.064;2023-06-22T02:57:37;17.80;99.90
14359;DHT22;7263;49.418;11.064;2023-06-22T03:00:12;17.90;99.90
14359;DHT22;7263;49.418;11.064;2023-06-22T03:05:15;18.00;99.90
14359;DHT22;7263;49.418;11.064;2023-06-22T03:07:44;18.00;99.90
14359;DHT22;7263;49.418;11.064;2023-06-22T03:10:12;18.00;99.90
14359;DHT22;7263;49.418;11.064;2023-06-22T03:12:40;18.00;99.90
14359;DHT22;7263;49.418;11.064;2023-06-22T03:15:09;18.10;99.90
14359;DHT22;7263;49.418;11.064;2023-06-22T03:17:36;18.10;99.90
14359;DHT22;7263;49.418;11.064;2023-06-22T03:20:05;18.10;99.90
14359;DHT22;7263;49.418;11.064;2023-06-22T03:22:39;18.10;99.90
14359;DHT22;7263;49.418;11.064;2023-06-22T03:25:08;18.20;99.90
14359;DHT22;7263;49.418;11.064;2023-06-22T03:27:40;18.20;99.90
14359;DHT22;7263;49.418;11.064;2023-06-22T03:30:09;18.20;99.90
14359;DHT22;7263;49.418;11.064;2023-06-22T03:32:36;18.30;99.90
14359;DHT22;7263;49.418;11.064;2023-06-22T03:35:06;18.30;99.90
14359;DHT22;7263;49.418;11.064;2023-06-22T03:37:33;18.20;99.90
14359;DHT22;7263;49.418;11.064;2023-06-22T03:40:01;18.20;99.90
14359;DHT22;7263;49.418;11.064;2023-06-22T03:42:30;18.20;99.90
14359;DHT22;7263;49.418;11.064;2023-06-22T03:47:26;18.20;99.90
14359;DHT22;7263;49.418;11.064;2023-06-22T03:49:53;18.20;99.90
14359;DHT22;7263;49.418;11.064;2023-06-22T03:52:20;18.30;99.90
14359;DHT22;7263;49.418;11.064;2023-06-22T03:54:47;18.30;99.90
14359;DHT22;7263;49.418;11.064;2023-06-22T03:57:15;18.30;99.90
14359;DHT22;7263;49.418;11.064;2023-06-22T03:59:47;18.40;99.90
14359;DHT22;7263;49.418;11.064;2023-06-22T04:04:43;18.50;99.90
14359;DHT22;7263;49.418;11.064;2023-06-22T04:07:10;18.50;99.90
14359;DHT22;7263;49.418;11.064;2023-06-22T04:09:37;18.60;99.90
14359;DHT22;7263;49.418;11.064;2023-06-22T04:12:04;18.70;99.90
14359;DHT22;7263;49.418;11.064;2023-06-22T04:14:33;18.70;99.90
14359;DHT22;7263;49.418;11.064;2023-06-22T04:17:02;18.80;99.90
14359;DHT22;7263;49.418;11.064;2023-06-22T04:19:31;18.80;99.90
14359;DHT22;7263;49.418;11.064;2023-06-22T04:21:58;18.90;99.90
14359;DHT22;7263;49.418;11.064;2023-06-22T04:26:55;18.90;99.90
14359;DHT22;7263;49.418;11.064;2023-06-22T04:31:58;18.90;99.90
14359;DHT22;7263;49.418;11.064;2023-06-22T04:34:28;18.90;99.90
14359;DHT22;7263;49.418;11.064;2023-06-22T04:36:55;19.10;99.90
14359;DHT22;7263;49.418;11.064;2023-06-22T04:39:22;19.20;99.90
14359;DHT22;7263;49.418;11.064;2023-06-22T04:44:25;19.30;99.90
14359;DHT22;7263;49.418;11.064;2023-06-22T04:46:58;19.40;99.90
14359;DHT22;7263;49.418;11.064;2023-06-22T04:49:28;19.40;99.90
14359;DHT22;7263;49.418;11.064;2023-06-22T04:52:05;19.50;99.90
14359;DHT22;7263;49.418;11.064;2023-06-22T04:54:33;19.60;99.90
14359;DHT22;7263;49.418;11.064;2023-06-22T04:57:07;19.70;99.90
14359;DHT22;7263;49.418;11.064;2023-06-22T04:59:36;19.70;99.90
14359;DHT22;7263;49.418;11.064;2023-06-22T05:02:05;19.60;99.90
14359;DHT22;7263;49.418;11.064;2023-06-22T05:07:02;19.70;99.90
14359;DHT22;7263;49.418;11.064;2023-06-22T05:11:56;20.00;99.90
14359;DHT22;7263;49.418;11.064;2023-06-22T05:14:25;20.20;99.90
14359;DHT22;7263;49.418;11.064;2023-06-22T05:16:51;20.40;99.90
14359;DHT22;7263;49.418;11.064;2023-06-22T05:19:20;20.70;99.90
14359;DHT22;7263;49.418;11.064;2023-06-22T05:21:46;20.90;99.90
14359;DHT22;7263;49.418;11.064;2023-06-22T05:24:13;21.10;99.90
14359;DHT22;7263;49.418;11.064;2023-06-22T05:26:40;21.20;99.90
14359;DHT22;7263;49.418;11.064;2023-06-22T05:29:10;21.40;99.90
14359;DHT22;7263;49.418;11.064;2023-06-22T05:31:39;21.70;99.90
14359;DHT22;7263;49.418;11.064;2023-06-22T05:34:09;22.10;99.90
14359;DHT22;7263;49.418;11.064;2023-06-22T05:36:38;22.30;99.90
14359;DHT22;7263;49.418;11.064;2023-06-22T05:39:11;22.50;99.90
14359;DHT22;7263;49.418;11.064;2023-06-22T05:41:42;22.50;99.90
14359;DHT22;7263;49.418;11.064;2023-06-22T05:44:09;22.60;99.90
14359;DHT22;7263;49.418;11.064;2023-06-22T05:46:36;22.60;99.90
14359;DHT22;7263;49.418;11.064;2023-06-22T05:49:03;22.60;99.90
14359;DHT22;7263;49.418;11.064;2023-06-22T05:51:30;22.70;99.90
14359;DHT22;7263;49.418;11.064;2023-06-22T05:54:01;22.80;99.90
14359;DHT22;7263;49.418;11.064;2023-06-22T05:56:34;22.90;99.90
14359;DHT22;7263;49.418;11.064;2023-06-22T05:59:01;23.00;99.90
14359;DHT22;7263;49.418;11.064;2023-06-22T06:01:35;23.00;99.90
14359;DHT22;7263;49.418;11.064;2023-06-22T06:04:02;22.90;99.90
14359;DHT22;7263;49.418;11.064;2023-06-22T06:06:29;23.00;99.90
14359;DHT22;7263;49.418;11.064;2023-06-22T06:08:56;23.20;99.90
14359;DHT22;7263;49.418;11.064;2023-06-22T06:11:27;23.30;99.90
14359;DHT22;7263;49.418;11.064;2023-06-22T06:13:54;23.40;99.90
14359;DHT22;7263;49.418;11.064;2023-06-22T06:16:24;23.50;99.90
14359;DHT22;7263;49.418;11.064;2023-06-22T06:18:56;23.60;99.90
14359;DHT22;7263;49.418;11.064;2023-06-22T06:21:23;24.00;99.90
14359;DHT22;7263;49.418;11.064;2023-06-22T06:23:53;24.10;99.90
14359;DHT22;7263;49.418;11.064;2023-06-22T06:26:20;24.30;99.90
14359;DHT22;7263;49.418;11.064;2023-06-22T06:28:55;24.30;99.90
14359;DHT22;7263;49.418;11.064;2023-06-22T06:31:22;24.40;99.90
14359;DHT22;7263;49.418;11.064;2023-06-22T06:33:49;24.40;99.90
14359;DHT22;7263;49.418;11.064;2023-06-22T06:36:16;24.60;99.90
14359;DHT22;7263;49.418;11.064;2023-06-22T06:38:42;24.80;99.90
14359;DHT22;7263;49.418;11.064;2023-06-22T06:41:09;24.90;99.90
14359;DHT22;7263;49.418;11.064;2023-06-22T06:43:36;25.00;99.90
14359;DHT22;7263;49.418;11.064;2023-06-22T06:46:15;25.00;99.90
14359;DHT22;7263;49.418;11.064;2023-06-22T06:48:42;25.20;99.90
14359;DHT22;7263;49.418;11.064;2023-06-22T06:51:08;25.40;99.90
14359;DHT22;7263;49.418;11.064;2023-06-22T06:53:38;25.40;99.90
14359;DHT22;7263;49.418;11.064;2023-06-22T06:56:08;25.40;99.90
14359;DHT22;7263;49.418;11.064;2023-06-22T06:58:35;25.50;99.90
14359;DHT22;7263;49.418;11.064;2023-06-22T07:01:02;25.80;99.90
14359;DHT22;7263;49.418;11.064;2023-06-22T07:03:33;26.30;99.90
14359;DHT22;7263;49.418;11.064;2023-06-22T07:06:00;26.30;99.90
14359;DHT22;7263;49.418;11.064;2023-06-22T07:08:27;26.50;99.90
14359;DHT22;7263;49.418;11.064;2023-06-22T07:10:54;26.70;99.90
14359;DHT22;7263;49.418;11.064;2023-06-22T07:13:23;26.60;99.90
14359;DHT22;7263;49.418;11.064;2023-06-22T07:15:50;26.70;99.90
14359;DHT22;7263;49.418;11.064;2023-06-22T07:18:19;27.00;99.90
14359;DHT22;7263;49.418;11.064;2023-06-22T07:20:47;27.20;99.90
14359;DHT22;7263;49.418;11.064;2023-06-22T07:23:17;27.00;99.90
14359;DHT22;7263;49.418;11.064;2023-06-22T07:25:46;27.10;99.90
14359;DHT22;7263;49.418;11.064;2023-06-22T07:28:14;27.20;99.90
14359;DHT22;7263;49.418;11.064;2023-06-22T07:30:45;27.40;99.90
14359;DHT22;7263;49.418;11.064;2023-06-22T07:33:15;27.40;99.90
14359;DHT22;7263;49.418;11.064;2023-06-22T07:35:42;27.30;99.90
14359;DHT22;7263;49.418;11.064;2023-06-22T07:38:11;27.30;99.90
14359;DHT22;7263;49.418;11.064;2023-06-22T07:40:40;27.50;99.90
14359;DHT22;7263;49.418;11.064;2023-06-22T07:43:07;27.40;99.90
14359;DHT22;7263;49.418;11.064;2023-06-22T07:45:37;27.60;99.90
14359;DHT22;7263;49.418;11.064;2023-06-22T07:48:06;27.70;99.90
14359;DHT22;7263;49.418;11.064;2023-06-22T07:50:33;27.90;99.90
14359;DHT22;7263;49.418;11.064;2023-06-22T07:52:59;28.20;99.90
14359;DHT22;7263;49.418;11.064;2023-06-22T07:55:30;28.20;99.90
14359;DHT22;7263;49.418;11.064;2023-06-22T07:57:56;28.50;99.90
14359;DHT22;7263;49.418;11.064;2023-06-22T08:00:24;28.50;99.90
14359;DHT22;7263;49.418;11.064;2023-06-22T08:02:53;28.80;99.90
14359;DHT22;7263;49.418;11.064;2023-06-22T08:05:22;28.80;99.90
14359;DHT22;7263;49.418;11.064;2023-06-22T08:07:49;29.00;99.90
14359;DHT22;7263;49.418;11.064;2023-06-22T08:10:16;28.90;99.90
14359;DHT22;7263;49.418;11.064;2023-06-22T08:12:44;28.60;99.90
14359;DHT22;7263;49.418;11.064;2023-06-22T08:15:14;28.70;99.90
14359;DHT22;7263;49.418;11.064;2023-06-22T08:17:41;28.80;99.90
14359;DHT22;7263;49.418;11.064;2023-06-22T08:20:09;29.00;99.90
14359;DHT22;7263;49.418;11.064;2023-06-22T08:22:37;29.20;99.90
14359;DHT22;7263;49.418;11.064;2023-06-22T08:25:05;29.20;99.90
14359;DHT22;7263;49.418;11.064;2023-06-22T08:27:35;29.30;99.90
14359;DHT22;7263;49.418;11.064;2023-06-22T08:30:05;29.50;99.90
14359;DHT22;7263;49.418;11.064;2023-06-22T08:32:32;29.50;99.90
14359;DHT22;7263;49.418;11.064;2023-06-22T08:34:59;29.50;99.90
14359;DHT22;7263;49.418;11.064;2023-06-22T08:37:26;29.70;99.90
14359;DHT22;7263;49.418;11.064;2023-06-22T08:39:57;29.50;99.90
14359;DHT22;7263;49.418;11.064;2023-06-22T08:42:23;29.00;99.90
14359;DHT22;7263;49.418;11.064;2023-06-22T08:44:54;29.10;99.90
14359;DHT22;7263;49.418;11.064;2023-06-22T08:47:22;29.20;99.90
14359;DHT22;7263;49.418;11.064;2023-06-22T08:49:49;29.50;99.90
14359;DHT22;7263;49.418;11.064;2023-06-22T08:52:17;29.90;99.90
14359;DHT22;7263;49.418;11.064;2023-06-22T08:54:44;30.10;99.90
14359;DHT22;7263;49.418;11.064;2023-06-22T08:57:10;30.20;99.90
14359;DHT22;7263;49.418;11.064;2023-06-22T08:59:42;30.30;99.90
14359;DHT22;7263;49.418;11.064;2023-06-22T09:02:09;30.30;99.90
14359;DHT22;7263;49.418;11.064;2023-06-22T09:04:40;30.30;99.90
14359;DHT22;7263;49.418;11.064;2023-06-22T09:07:07;30.40;99.90
14359;DHT22;7263;49.418;11.064;2023-06-22T09:09:34;30.80;99.90
14359;DHT22;7263;49.418;11.064;2023-06-22T09:12:01;31.10;99.90
14359;DHT22;7263;49.418;11.064;2023-06-22T09:14:28;31.00;99.90
14359;DHT22;7263;49.418;11.064;2023-06-22T09:16:54;30.80;99.90
14359;DHT22;7263;49.418;11.064;2023-06-22T09:19:21;30.90;99.90
14359;DHT22;7263;49.418;11.064;2023-06-22T09:21:50;31.20;99.90
14359;DHT22;7263;49.418;11.064;2023-06-22T09:24:20;30.70;99.90
14359;DHT22;7263;49.418;11.064;2023-06-22T09:26:49;30.70;99.90
14359;DHT22;7263;49.418;11.064;2023-06-22T09:29:18;31.10;99.90
14359;DHT22;7263;49.418;11.064;2023-06-22T09:31:45;31.10;99.90
14359;DHT22;7263;49.418;11.064;2023-06-22T09:34:14;31.10;99.90
14359;DHT22;7263;49.418;11.064;2023-06-22T09:36:41;31.20;99.90
14359;DHT22;7263;49.418;11.064;2023-06-22T09:39:15;31.30;99.90
14359;DHT22;7263;49.418;11.064;2023-06-22T09:41:41;31.70;99.90
14359;DHT22;7263;49.418;11.064;2023-06-22T09:44:08;31.60;99.90
14359;DHT22;7263;49.418;11.064;2023-06-22T09:46:35;31.70;99.90
14359;DHT22;7263;49.418;11.064;2023-06-22T09:49:02;31.70;99.90
14359;DHT22;7263;49.418;11.064;2023-06-22T09:51:28;31.70;99.90
14359;DHT22;7263;49.418;11.064;2023-06-22T09:53:55;31.40;99.90
14359;DHT22;7263;49.418;11.064;2023-06-22T09:56:23;31.00;99.90
14359;DHT22;7263;49.418;11.064;2023-06-22T09:58:54;32.20;99.90
14359;DHT22;7263;49.418;11.064;2023-06-22T10:01:23;30.80;99.90
14359;DHT22;7263;49.418;11.064;2023-06-22T10:03:52;30.90;99.90
14359;DHT22;7263;49.418;11.064;2023-06-22T10:06:22;31.30;99.90
14359;DHT22;7263;49.418;11.064;2023-06-22T10:08:50;31.60;99.90
14359;DHT22;7263;49.418;11.064;2023-06-22T10:11:17;31.80;99.90
14359;DHT22;7263;49.418;11.064;2023-06-22T10:13:48;31.60;99.90
14359;DHT22;7263;49.418;11.064;2023-06-22T10:16:20;31.50;99.90
14359;DHT22;7263;49.418;11.064;2023-06-22T10:18:47;31.50;99.90
14359;DHT22;7263;49.418;11.064;2023-06-22T10:21:17;31.70;99.90
14359;DHT22;7263;49.418;11.064;2023-06-22T10:23:43;32.00;99.90
14359;DHT22;7263;49.418;11.064;2023-06-22T10:26:10;32.00;99.90
14359;DHT22;7263;49.418;11.064;2023-06-22T10:28:38;32.20;99.90
14359;DHT22;7263;49.418;11.064;2023-06-22T10:31:07;32.20;99.90
14359;DHT22;7263;49.418;11.064;2023-06-22T10:33:33;32.20;99.90
14359;DHT22;7263;49.418;11.064;2023-06-22T10:36:00;32.20;99.90
14359;DHT22;7263;49.418;11.064;2023-06-22T10:38:27;32.30;99.90
14359;DHT22;7263;49.418;11.064;2023-06-22T10:40:54;32.50;99.90
14359;DHT22;7263;49.418;11.064;2023-06-22T10:43:20;32.50;99.90
14359;DHT22;7263;49.418;11.064;2023-06-22T10:45:47;32.40;99.90
14359;DHT22;7263;49.418;11.064;2023-06-22T10:48:23;32.60;99.90
14359;DHT22;7263;49.418;11.064;2023-06-22T10:50:49;32.80;99.90
14359;DHT22;7263;49.418;11.064;2023-06-22T10:53:21;32.60;99.90
14359;DHT22;7263;49.418;11.064;2023-06-22T10:55:55;32.60;99.90
14359;DHT22;7263;49.418;11.064;2023-06-22T10:58:22;32.90;99.90
14359;DHT22;7263;49.418;11.064;2023-06-22T11:00:49;33.30;99.70
14359;DHT22;7263;49.418;11.064;2023-06-22T11:03:17;33.60;99.60
14359;DHT22;7263;49.418;11.064;2023-06-22T11:05:46;33.60;99.00
14359;DHT22;7263;49.418;11.064;2023-06-22T11:08:13;33.50;98.70
14359;DHT22;7263;49.418;11.064;2023-06-22T11:10:40;33.70;98.10
14359;DHT22;7263;49.418;11.064;2023-06-22T11:13:10;33.80;97.90
14359;DHT22;7263;49.418;11.064;2023-06-22T11:15:36;33.50;97.70
14359;DHT22;7263;49.418;11.064;2023-06-22T11:18:06;33.10;98.20
14359;DHT22;7263;49.418;11.064;2023-06-22T11:20:37;33.20;99.00
14359;DHT22;7263;49.418;11.064;2023-06-22T11:23:09;33.70;98.00
14359;DHT22;7263;49.418;11.064;2023-06-22T11:25:37;33.80;98.40
14359;DHT22;7263;49.418;11.064;2023-06-22T11:28:08;33.70;97.30
14359;DHT22;7263;49.418;11.064;2023-06-22T11:30:35;33.80;97.90
14359;DHT22;7263;49.418;11.064;2023-06-22T11:33:01;34.00;97.00
14359;DHT22;7263;49.418;11.064;2023-06-22T11:35:28;34.00;97.40
14359;DHT22;7263;49.418;11.064;2023-06-22T11:38:02;34.20;97.10
14359;DHT22;7263;49.418;11.064;2023-06-22T11:40:31;34.20;97.10
14359;DHT22;7263;49.418;11.064;2023-06-22T11:42:58;34.10;95.90
14359;DHT22;7263;49.418;11.064;2023-06-22T11:45:25;34.00;96.40
14359;DHT22;7263;49.418;11.064;2023-06-22T11:47:52;33.80;97.20
14359;DHT22;7263;49.418;11.064;2023-06-22T11:50:19;34.30;97.20
14359;DHT22;7263;49.418;11.064;2023-06-22T11:53:01;34.50;95.20
14359;DHT22;7263;49.418;11.064;2023-06-22T11:55:28;34.20;95.30
14359;DHT22;7263;49.418;11.064;2023-06-22T11:57:55;33.80;95.60
14359;DHT22;7263;49.418;11.064;2023-06-22T12:00:24;33.40;95.60
14359;DHT22;7263;49.418;11.064;2023-06-22T12:02:51;33.40;96.50
14359;DHT22;7263;49.418;11.064;2023-06-22T12:05:22;33.40;96.30
14359;DHT22;7263;49.418;11.064;2023-06-22T12:07:52;33.20;96.50
14359;DHT22;7263;49.418;11.064;2023-06-22T12:10:24;33.30;97.00
14359;DHT22;7263;49.418;11.064;2023-06-22T12:12:54;33.30;96.20
14359;DHT22;7263;49.418;11.064;2023-06-22T12:15:20;32.40;96.60
14359;DHT22;7263;49.418;11.064;2023-06-22T12:17:47;33.80;96.00
14359;DHT22;7263;49.418;11.064;2023-06-22T12:20:17;34.20;96.00
14359;DHT22;7263;49.418;11.064;2023-06-22T12:25:16;34.10;95.80
14359;DHT22;7263;49.418;11.064;2023-06-22T12:27:45;34.10;96.60
14359;DHT22;7263;49.418;11.064;2023-06-22T12:30:16;33.80;96.30
14359;DHT22;7263;49.418;11.064;2023-06-22T12:32:46;33.30;96.40
14359;DHT22;7263;49.418;11.064;2023-06-22T12:35:15;33.30;97.10
14359;DHT22;7263;49.418;11.064;2023-06-22T12:37:42;33.10;96.80
14359;DHT22;7263;49.418;11.064;2023-06-22T12:40:12;33.10;96.80
14359;DHT22;7263;49.418;11.064;2023-06-22T12:42:39;33.30;96.40
14359;DHT22;7263;49.418;11.064;2023-06-22T12:45:09;33.20;96.90
14359;DHT22;7263;49.418;11.064;2023-06-22T12:47:39;33.00;96.30
14359;DHT22;7263;49.418;11.064;2023-06-22T12:50:06;32.70;96.50
14359;DHT22;7263;49.418;11.064;2023-06-22T12:52:37;32.90;96.60
14359;DHT22;7263;49.418;11.064;2023-06-22T12:55:07;32.90;97.00
14359;DHT22;7263;49.418;11.064;2023-06-22T12:57:34;32.80;97.30
14359;DHT22;7263;49.418;11.064;2023-06-22T13:00:05;32.80;97.40
14359;DHT22;7263;49.418;11.064;2023-06-22T13:02:34;32.80;96.40
14359;DHT22;7263;49.418;11.064;2023-06-22T13:05:03;32.90;96.90
14359;DHT22;7263;49.418;11.064;2023-06-22T13:07:31;33.10;97.10
14359;DHT22;7263;49.418;11.064;2023-06-22T13:10:01;33.30;97.00
14359;DHT22;7263;49.418;11.064;2023-06-22T13:12:28;36.10;97.40
14359;DHT22;7263;49.418;11.064;2023-06-22T13:14:54;33.50;96.40
14359;DHT22;7263;49.418;11.064;2023-06-22T13:17:28;33.60;95.70
14359;DHT22;7263;49.418;11.064;2023-06-22T13:19:56;33.40;96.10
14359;DHT22;7263;49.418;11.064;2023-06-22T13:22:28;33.10;95.40
14359;DHT22;7263;49.418;11.064;2023-06-22T13:24:55;33.10;95.80
14359;DHT22;7263;49.418;11.064;2023-06-22T13:27:22;33.20;96.10
14359;DHT22;7263;49.418;11.064;2023-06-22T13:29:49;33.30;96.10
14359;DHT22;7263;49.418;11.064;2023-06-22T13:32:16;33.30;95.00
14359;DHT22;7263;49.418;11.064;2023-06-22T13:34:43;33.30;95.30
14359;DHT22;7263;49.418;11.064;2023-06-22T13:37:17;33.20;95.70
14359;DHT22;7263;49.418;11.064;2023-06-22T13:39:44;33.30;96.20
14359;DHT22;7263;49.418;11.064;2023-06-22T13:42:11;33.50;94.00
14359;DHT22;7263;49.418;11.064;2023-06-22T13:44:44;33.50;94.10
14359;DHT22;7263;49.418;11.064;2023-06-22T13:47:11;33.70;95.20
14359;DHT22;7263;49.418;11.064;2023-06-22T13:49:38;33.80;94.70
14359;DHT22;7263;49.418;11.064;2023-06-22T13:52:05;33.80;95.10
14359;DHT22;7263;49.418;11.064;2023-06-22T13:54:37;33.80;95.60
14359;DHT22;7263;49.418;11.064;2023-06-22T13:57:04;33.90;95.90
14359;DHT22;7263;49.418;11.064;2023-06-22T13:59:34;34.10;96.00
14359;DHT22;7263;49.418;11.064;2023-06-22T14:02:03;34.30;95.00
14359;DHT22;7263;49.418;11.064;2023-06-22T14:04:30;34.30;95.40
14359;DHT22;7263;49.418;11.064;2023-06-22T14:07:00;34.40;94.40
14359;DHT22;7263;49.418;11.064;2023-06-22T14:09:27;34.30;94.60
14359;DHT22;7263;49.418;11.064;2023-06-22T14:12:03;34.10;93.40
14359;DHT22;7263;49.418;11.064;2023-06-22T14:14:29;34.10;93.60
14359;DHT22;7263;49.418;11.064;2023-06-22T14:16:59;34.10;94.20
14359;DHT22;7263;49.418;11.064;2023-06-22T14:19:28;34.10;93.70
14359;DHT22;7263;49.418;11.064;2023-06-22T14:21:57;33.80;94.30
14359;DHT22;7263;49.418;11.064;2023-06-22T14:24:24;33.80;94.50
14359;DHT22;7263;49.418;11.064;2023-06-22T14:26:55;33.60;94.80
14359;DHT22;7263;49.418;11.064;2023-06-22T14:29:24;33.40;95.20
14359;DHT22;7263;49.418;11.064;2023-06-22T14:34:18;33.30;95.40
14359;DHT22;7263;49.418;11.064;2023-06-22T14:36:45;33.40;95.20
14359;DHT22;7263;49.418;11.064;2023-06-22T14:39:17;33.40;95.20
14359;DHT22;7263;49.418;11.064;2023-06-22T14:41:46;33.30;95.70
14359;DHT22;7263;49.418;11.064;2023-06-22T14:44:12;33.30;94.90
14359;DHT22;7263;49.418;11.064;2023-06-22T14:46:41;33.30;95.30
14359;DHT22;7263;49.418;11.064;2023-06-22T14:49:07;33.20;94.10
14359;DHT22;7263;49.418;11.064;2023-06-22T14:51:34;33.30;94.80
14359;DHT22;7263;49.418;11.064;2023-06-22T14:54:01;33.20;94.90
14359;DHT22;7263;49.418;11.064;2023-06-22T14:56:28;33.40;95.70
14359;DHT22;7263;49.418;11.064;2023-06-22T14:58:55;33.60;94.50
14359;DHT22;7263;49.418;11.064;2023-06-22T15:01:22;33.80;94.50
14359;DHT22;7263;49.418;11.064;2023-06-22T15:03:50;33.90;93.70
14359;DHT22;7263;49.418;11.064;2023-06-22T15:06:20;34.00;95.20
14359;DHT22;7263;49.418;11.064;2023-06-22T15:08:47;34.10;93.60
14359;DHT22;7263;49.418;11.064;2023-06-22T15:11:14;34.10;93.80
14359;DHT22;7263;49.418;11.064;2023-06-22T15:13:43;34.10;93.30
14359;DHT22;7263;49.418;11.064;2023-06-22T15:16:12;34.00;93.50
14359;DHT22;7263;49.418;11.064;2023-06-22T15:18:42;34.00;93.50
14359;DHT22;7263;49.418;11.064;2023-06-22T15:21:10;33.90;93.90
14359;DHT22;7263;49.418;11.064;2023-06-22T15:23:37;33.60;93.00
14359;DHT22;7263;49.418;11.064;2023-06-22T15:26:04;33.50;93.40
14359;DHT22;7263;49.418;11.064;2023-06-22T15:28:31;33.60;93.10
14359;DHT22;7263;49.418;11.064;2023-06-22T15:31:00;33.60;93.70
14359;DHT22;7263;49.418;11.064;2023-06-22T15:33:29;33.70;93.50
14359;DHT22;7263;49.418;11.064;2023-06-22T15:35:57;33.70;93.20
14359;DHT22;7263;49.418;11.064;2023-06-22T15:38:30;33.50;93.30
14359;DHT22;7263;49.418;11.064;2023-06-22T15:40:57;33.30;93.30
14359;DHT22;7263;49.418;11.064;2023-06-22T15:43:24;33.30;92.90
14359;DHT22;7263;49.418;11.064;2023-06-22T15:45:50;33.30;92.70
14359;DHT22;7263;49.418;11.064;2023-06-22T15:48:20;33.10;93.10
14359;DHT22;7263;49.418;11.064;2023-06-22T15:50:51;33.00;93.00
14359;DHT22;7263;49.418;11.064;2023-06-22T15:53:18;32.80;92.30
14359;DHT22;7263;49.418;11.064;2023-06-22T15:55:46;32.80;92.30
14359;DHT22;7263;49.418;11.064;2023-06-22T15:58:18;32.80;92.50
14359;DHT22;7263;49.418;11.064;2023-06-22T16:00:50;32.80;92.40
14359;DHT22;7263;49.418;11.064;2023-06-22T16:03:20;32.80;92.60
14359;DHT22;7263;49.418;11.064;2023-06-22T16:05:46;32.80;91.80
14359;DHT22;7263;49.418;11.064;2023-06-22T16:08:13;32.80;91.90
14359;DHT22;7263;49.418;11.064;2023-06-22T16:10:42;32.80;92.10
14359;DHT22;7263;49.418;11.064;2023-06-22T16:13:14;32.60;91.70
14359;DHT22;7263;49.418;11.064;2023-06-22T16:15:41;32.70;92.50